createdAt,value
2023-04-01T00:00:36.606Z,52.72
2023-04-01T00:03:04.340Z,62.15
2023-04-01T00:05:32.351Z,52.35
2023-04-01T00:07:59.895Z,58.50
2023-04-01T00:10:27.444Z,58.78
2023-04-01T00:12:54.922Z,62.17
2023-04-01T00:15:22.438Z,64.90
2023-04-01T00:17:50.588Z,61.05
2023-04-01T00:20:18.269Z,60.95
2023-04-01T00:22:45.711Z,65.05
2023-04-01T00:25:13.206Z,60.92
2023-04-01T00:27:40.915Z,61.95
2023-04-01T00:30:09.540Z,68.97
2023-04-01T00:32:37.219Z,59.40
2023-04-01T00:35:05.449Z,58.20
2023-04-01T00:37:37.969Z,53.42
2023-04-01T00:40:07.573Z,59.17
2023-04-01T00:42:35.233Z,54.58
2023-04-01T00:45:26.325Z,51.03
2023-04-01T00:47:54.480Z,55.35
2023-04-01T00:50:24.892Z,60.28
2023-04-01T00:52:53.405Z,48.30
2023-04-01T00:55:22.730Z,46.28
2023-04-01T00:57:52.931Z,50.83
2023-04-01T01:00:20.632Z,54.15
2023-04-01T01:02:48.995Z,62.13
2023-04-01T01:05:18.752Z,58.45
2023-04-01T01:07:57.901Z,62.67
2023-04-01T01:10:34.023Z,60.15
2023-04-01T01:13:22.816Z,52.28
2023-04-01T01:16:01.450Z,59.92
2023-04-01T01:18:47.102Z,53.25
2023-04-01T01:21:44.873Z,52.33
2023-04-01T01:24:23.770Z,48.10
2023-04-01T01:27:04.891Z,49.33
2023-04-01T01:29:54.342Z,45.65
2023-04-01T01:32:37.084Z,49.72
2023-04-01T01:35:26.529Z,49.05
2023-04-01T01:38:01.669Z,51.20
2023-04-01T01:40:32.098Z,55.92
2023-04-01T01:43:05.534Z,58.55
2023-04-01T01:45:36.785Z,68.65
2023-04-01T01:48:06.530Z,62.45
2023-04-01T01:50:36.341Z,71.95
2023-04-01T01:53:10.053Z,74.93
2023-04-01T01:55:40.441Z,80.47
2023-04-01T01:58:13.233Z,85.38
2023-04-01T02:00:45.322Z,87.65
2023-04-01T02:03:14.499Z,67.32
2023-04-01T02:05:42.218Z,75.63
2023-04-01T02:08:22.384Z,78.85
2023-04-01T02:11:01.110Z,81.07
2023-04-01T02:13:51.368Z,83.70
2023-04-01T02:16:28.900Z,80.15
2023-04-01T02:18:59.124Z,86.10
2023-04-01T02:21:32.024Z,70.75
2023-04-01T02:24:01.721Z,75.35
2023-04-01T02:26:29.353Z,68.90
2023-04-01T02:28:58.584Z,76.30
2023-04-01T02:31:26.641Z,69.63
2023-04-01T02:33:55.512Z,59.65
2023-04-01T02:36:23.113Z,64.22
2023-04-01T02:38:52.176Z,59.15
2023-04-01T02:41:19.711Z,67.90
2023-04-01T02:43:48.093Z,63.70
2023-04-01T02:46:15.761Z,55.47
2023-04-01T02:48:43.263Z,47.75
2023-04-01T02:51:10.753Z,50.35
2023-04-01T02:53:38.202Z,66.90
2023-04-01T02:56:06.035Z,67.82
2023-04-01T02:58:33.576Z,76.78
2023-04-01T03:01:01.096Z,72.65
2023-04-01T03:03:28.599Z,77.32
2023-04-01T03:06:01.079Z,75.57
2023-04-01T03:08:28.537Z,65.65
2023-04-01T03:10:56.133Z,64.72
2023-04-01T03:13:23.615Z,61.85
2023-04-01T03:15:51.025Z,61.67
2023-04-01T03:18:18.625Z,61.15
2023-04-01T03:20:46.488Z,68.68
2023-04-01T03:23:14.036Z,65.65
2023-04-01T03:25:41.746Z,70.70
2023-04-01T03:28:09.735Z,62.88
2023-04-01T03:30:38.128Z,73.15
2023-04-01T03:33:06.112Z,64.10
2023-04-01T03:35:34.276Z,71.68
2023-04-01T03:38:02.037Z,69.88
2023-04-01T03:40:29.662Z,74.03
2023-04-01T03:42:57.357Z,65.55
2023-04-01T03:45:25.064Z,64.20
2023-04-01T03:47:52.624Z,63.30
2023-04-01T03:50:20.739Z,59.75
2023-04-01T03:52:48.231Z,71.35
2023-04-01T03:55:16.542Z,60.10
2023-04-01T03:57:44.272Z,72.47
2023-04-01T04:00:18.751Z,65.20
2023-04-01T04:02:50.035Z,71.80
2023-04-01T04:05:22.315Z,56.13
2023-04-01T04:07:50.236Z,53.70
2023-04-01T04:10:18.128Z,64.93
2023-04-01T04:12:45.867Z,70.43
2023-04-01T04:15:13.860Z,68.97
2023-04-01T04:17:41.556Z,72.38
2023-04-01T04:20:09.903Z,81.93
2023-04-01T04:22:37.506Z,81.25
2023-04-01T04:25:08.399Z,82.53
2023-04-01T04:27:36.533Z,85.30
2023-04-01T04:30:09.788Z,76.45
2023-04-01T04:32:38.340Z,90.50
2023-04-01T04:35:07.671Z,81.95
2023-04-01T04:37:35.774Z,76.47
2023-04-01T04:40:03.319Z,79.20
2023-04-01T04:42:32.011Z,74.50
2023-04-01T04:45:05.908Z,80.00
2023-04-01T04:47:33.622Z,73.93
2023-04-01T04:50:01.273Z,73.68
2023-04-01T04:52:29.166Z,68.35
2023-04-01T04:54:56.634Z,65.72
2023-04-01T04:57:24.440Z,67.57
2023-04-01T04:59:56.020Z,63.60
2023-04-01T05:02:43.665Z,66.05
2023-04-01T05:05:11.569Z,60.20
2023-04-01T05:07:39.218Z,63.97
2023-04-01T05:10:07.324Z,77.43
2023-04-01T05:12:38.367Z,75.50
2023-04-01T05:15:07.918Z,71.78
2023-04-01T05:17:35.574Z,67.93
2023-04-01T05:20:05.212Z,79.40
2023-04-01T05:22:32.746Z,68.85
2023-04-01T05:25:00.419Z,73.85
2023-04-01T05:27:29.018Z,62.30
2023-04-01T05:29:57.060Z,58.45
2023-04-01T05:32:47.347Z,60.55
2023-04-01T05:35:14.953Z,63.13
2023-04-01T05:37:42.436Z,48.17
2023-04-01T05:40:10.696Z,53.90
2023-04-01T05:42:38.571Z,57.63
2023-04-01T05:45:07.610Z,57.58
2023-04-01T05:47:49.808Z,50.97
2023-04-01T05:50:18.922Z,50.92
2023-04-01T05:52:46.504Z,47.33
2023-04-01T05:55:14.243Z,46.15
2023-04-01T05:57:42.320Z,52.33
2023-04-01T06:00:10.851Z,48.08
2023-04-01T06:02:43.596Z,59.97
2023-04-01T06:05:17.169Z,59.38
2023-04-01T06:07:45.067Z,51.58
2023-04-01T06:10:18.454Z,48.60
2023-04-01T06:13:09.148Z,43.13
2023-04-01T06:16:01.230Z,49.28
2023-04-01T06:18:40.374Z,46.35
2023-04-01T06:21:26.540Z,45.13
2023-04-01T06:24:28.780Z,44.97
2023-04-01T06:27:21.172Z,51.50
2023-04-01T06:32:47.753Z,43.55
2023-04-01T06:35:25.934Z,40.25
2023-04-01T06:38:20.718Z,42.53
2023-04-01T06:41:09.989Z,43.00
2023-04-01T06:43:55.618Z,37.50
2023-04-01T06:47:21.596Z,42.60
2023-04-01T06:50:13.288Z,45.17
2023-04-01T06:53:50.696Z,46.20
2023-04-01T06:56:39.924Z,42.75
2023-04-01T06:59:18.850Z,42.53
2023-04-01T07:01:48.257Z,42.03
2023-04-01T07:04:28.120Z,41.70
2023-04-01T07:07:04.551Z,39.58
2023-04-01T07:09:45.010Z,40.30
2023-04-01T07:12:37.882Z,40.83
2023-04-01T07:15:29.912Z,39.67
2023-04-01T07:18:05.693Z,38.85
2023-04-01T07:20:38.240Z,41.53
2023-04-01T07:23:11.800Z,43.20
2023-04-01T07:25:59.430Z,43.78
2023-04-01T07:28:36.174Z,43.17
2023-04-01T07:31:53.078Z,35.63
2023-04-01T07:35:02.144Z,36.10
2023-04-01T07:37:50.069Z,34.58
2023-04-01T07:40:43.136Z,38.67
2023-04-01T07:43:13.482Z,38.88
2023-04-01T07:46:22.095Z,42.78
2023-04-01T07:48:59.560Z,49.78
2023-04-01T07:51:48.265Z,44.75
2023-04-01T07:54:42.223Z,49.08
2023-04-01T07:57:20.762Z,45.50
2023-04-01T08:00:35.460Z,48.58
2023-04-01T08:04:03.737Z,44.20
2023-04-01T08:07:09.160Z,41.45
2023-04-01T08:09:50.339Z,42.95
2023-04-01T08:13:04.442Z,37.60
2023-04-01T08:16:12.060Z,40.63
2023-04-01T08:19:31.263Z,40.70
2023-04-01T08:22:05.687Z,39.35
2023-04-01T08:24:48.869Z,43.55
2023-04-01T08:27:38.789Z,37.15
2023-04-01T08:30:33.814Z,39.83
2023-04-01T08:33:12.359Z,37.15
2023-04-01T08:35:51.346Z,41.40
2023-04-01T08:38:40.915Z,39.70
2023-04-01T08:41:15.434Z,40.63
2023-04-01T08:44:43.227Z,41.38
2023-04-01T08:47:30.654Z,39.13
2023-04-01T08:50:21.647Z,46.75
2023-04-01T08:53:14.038Z,41.95
2023-04-01T08:56:11.929Z,44.35
2023-04-01T08:58:42.406Z,44.10
2023-04-01T09:01:46.453Z,47.88
2023-04-01T09:04:38.348Z,47.72
2023-04-01T09:07:10.446Z,48.75
2023-04-01T09:09:42.332Z,36.38
2023-04-01T09:12:32.440Z,41.53
2023-04-01T09:15:14.305Z,43.67
2023-04-01T09:18:06.729Z,39.20
2023-04-01T09:21:03.684Z,42.53
2023-04-01T09:24:09.169Z,42.65
2023-04-01T09:26:51.651Z,47.58
2023-04-01T09:29:23.173Z,40.35
2023-04-01T09:32:31.394Z,39.42
2023-04-01T09:35:41.775Z,32.17
2023-04-01T09:38:36.864Z,45.70
2023-04-01T09:41:29.730Z,32.63
2023-04-01T09:44:30.669Z,34.70
2023-04-01T09:47:25.574Z,42.60
2023-04-01T09:50:08.064Z,32.78
2023-04-01T09:52:35.873Z,38.33
2023-04-01T09:55:39.859Z,35.88
2023-04-01T09:58:43.737Z,35.60
2023-04-01T10:01:55.265Z,33.70
2023-04-01T10:05:02.196Z,25.27
2023-04-01T10:07:48.577Z,27.35
2023-04-01T10:10:34.559Z,9.80
2023-04-01T10:13:02.032Z,5.00
2023-04-01T10:15:38.322Z,3.13
2023-04-01T10:18:34.914Z,3.65
2023-04-01T10:21:15.929Z,5.53
2023-04-01T10:23:56.226Z,5.20
2023-04-01T10:26:44.720Z,4.68
2023-04-01T10:30:10.234Z,5.53
2023-04-01T10:32:44.706Z,6.57
2023-04-01T10:35:50.091Z,4.97
2023-04-01T10:38:39.265Z,4.80
2023-04-01T10:41:29.587Z,3.72
2023-04-01T10:44:49.724Z,4.13
2023-04-01T10:48:01.710Z,6.82
2023-04-01T10:50:42.971Z,4.03
2023-04-01T10:53:17.293Z,6.05
2023-04-01T10:56:26.754Z,4.25
2023-04-01T10:59:34.405Z,5.85
2023-04-01T11:02:49.657Z,4.80
2023-04-01T11:05:41.498Z,4.82
2023-04-01T11:08:36.973Z,3.72
2023-04-01T11:11:34.911Z,3.97
2023-04-01T11:14:57.545Z,3.60
2023-04-01T11:17:38.337Z,4.65
2023-04-01T11:20:39.628Z,3.15
2023-04-01T11:23:37.073Z,3.13
2023-04-01T11:26:09.631Z,3.40
2023-04-01T11:29:32.714Z,4.50
2023-04-01T11:32:25.477Z,6.60
2023-04-01T11:35:17.616Z,5.65
2023-04-01T11:37:54.108Z,3.42
2023-04-01T11:40:48.095Z,3.50
2023-04-01T11:44:12.696Z,6.15
2023-04-01T11:47:23.732Z,5.00
2023-04-01T11:50:20.484Z,5.75
2023-04-01T11:53:18.627Z,7.05
2023-04-01T11:55:57.738Z,6.78
2023-04-01T11:58:30.873Z,4.53
2023-04-01T12:01:21.119Z,9.00
2023-04-01T12:04:00.718Z,7.72
2023-04-01T12:06:36.357Z,6.07
2023-04-01T12:09:09.634Z,7.43
2023-04-01T12:11:55.246Z,8.18
2023-04-01T12:14:58.764Z,8.07
2023-04-01T12:17:34.893Z,7.80
2023-04-01T12:20:36.319Z,6.80
2023-04-01T12:23:16.023Z,6.28
2023-04-01T12:26:07.911Z,5.28
2023-04-01T12:29:07.145Z,6.78
2023-04-01T12:31:50.693Z,5.78
2023-04-01T12:34:43.792Z,4.53
2023-04-01T12:37:55.721Z,6.25
2023-04-01T12:40:51.635Z,3.63
2023-04-01T12:43:19.045Z,8.05
2023-04-01T12:46:09.525Z,5.55
2023-04-01T12:48:36.946Z,4.25
2023-04-01T12:51:38.322Z,4.68
2023-04-01T12:54:18.949Z,5.97
2023-04-01T12:57:05.060Z,5.28
2023-04-01T12:59:41.425Z,8.73
2023-04-01T13:02:26.266Z,7.78
2023-04-01T13:05:02.742Z,6.32
2023-04-01T13:07:43.800Z,6.03
2023-04-01T13:10:57.967Z,9.38
2023-04-01T13:13:33.988Z,7.28
2023-04-01T13:16:10.538Z,8.98
2023-04-01T13:18:58.187Z,9.45
2023-04-01T13:21:40.323Z,7.13
2023-04-01T13:24:28.336Z,7.38
2023-04-01T13:27:35.279Z,5.85
2023-04-01T13:30:17.767Z,5.47
2023-04-01T13:32:51.821Z,4.38
2023-04-01T13:35:31.393Z,6.05
2023-04-01T13:38:40.426Z,4.50
2023-04-01T13:41:28.964Z,4.45
2023-04-01T13:44:17.733Z,5.93
2023-04-01T13:46:54.170Z,4.63
2023-04-01T13:49:42.254Z,6.47
2023-04-01T13:52:31.184Z,4.47
2023-04-01T13:55:18.048Z,4.75
2023-04-01T13:57:48.712Z,3.97
2023-04-01T14:00:29.080Z,4.25
2023-04-01T14:03:14.728Z,5.78
2023-04-01T14:06:07.553Z,5.32
2023-04-01T14:08:56.103Z,8.85
2023-04-01T14:11:35.369Z,4.15
2023-04-01T14:14:08.683Z,6.50
2023-04-01T14:17:02.622Z,9.10
2023-04-01T14:19:48.641Z,5.07
2023-04-01T14:22:16.498Z,4.28
2023-04-01T14:25:00.103Z,2.72
2023-04-01T14:27:42.197Z,5.00
2023-04-01T14:30:31.633Z,7.30
2023-04-01T14:33:21.073Z,3.05
2023-04-01T14:36:13.627Z,26.55
2023-04-01T14:41:34.438Z,4.18
2023-04-01T14:44:17.140Z,2.08
2023-04-01T14:46:59.477Z,11.48
2023-04-01T14:52:16.310Z,2.58
2023-04-01T14:54:49.531Z,12.13
2023-04-01T14:57:25.562Z,23.00
2023-04-01T15:00:02.060Z,4.57
2023-04-01T15:02:44.408Z,5.60
2023-04-01T15:05:32.995Z,3.13
2023-04-01T15:08:27.904Z,6.03
2023-04-01T15:11:02.135Z,6.32
2023-04-01T15:13:52.762Z,11.63
2023-04-01T15:16:57.098Z,11.02
2023-04-01T15:19:58.336Z,6.80
2023-04-01T15:22:55.945Z,4.95
2023-04-01T15:25:39.354Z,7.13
2023-04-01T15:28:19.046Z,6.65
2023-04-01T15:31:09.088Z,6.68
2023-04-01T15:34:27.182Z,5.35
2023-04-01T15:37:21.112Z,5.85
2023-04-01T15:40:12.966Z,7.32
2023-04-01T15:42:52.513Z,10.52
2023-04-01T15:45:55.758Z,8.27
2023-04-01T15:48:47.605Z,5.63
2023-04-01T15:51:36.842Z,4.93
2023-04-01T15:54:22.822Z,2.80
2023-04-01T15:57:05.518Z,3.78
2023-04-01T15:59:51.131Z,4.43
2023-04-01T16:02:32.678Z,3.58
2023-04-01T16:05:14.297Z,4.53
2023-04-01T16:07:50.341Z,2.37
2023-04-01T16:10:43.748Z,3.15
2023-04-01T16:13:37.310Z,2.83
2023-04-01T16:16:31.945Z,4.03
2023-04-01T16:19:34.936Z,2.45
2023-04-01T16:22:17.997Z,2.58
2023-04-01T16:24:56.929Z,5.18
2023-04-01T16:27:41.574Z,3.05
2023-04-01T16:30:29.389Z,3.47
2023-04-01T16:33:31.579Z,2.72
2023-04-01T16:36:28.289Z,2.67
2023-04-01T16:39:27.376Z,6.72
2023-04-01T16:42:32.512Z,10.15
2023-04-01T16:45:09.194Z,12.55
2023-04-01T16:47:42.352Z,4.40
2023-04-01T16:50:24.634Z,6.57
2023-04-01T16:53:20.839Z,9.02
2023-04-01T16:56:19.667Z,2.40
2023-04-01T16:58:56.645Z,3.33
2023-04-01T17:01:49.133Z,2.05
2023-04-01T17:07:08.953Z,59.72
2023-04-01T17:09:58.380Z,9.50
2023-04-01T17:12:43.675Z,11.60
2023-04-01T17:15:38.455Z,11.35
2023-04-01T17:18:29.574Z,8.52
2023-04-01T17:21:18.278Z,7.10
2023-04-01T17:24:10.234Z,8.52
2023-04-01T17:26:47.440Z,28.50
2023-04-01T17:29:25.945Z,8.48
2023-04-01T17:32:25.944Z,7.63
2023-04-01T17:35:10.487Z,11.60
2023-04-01T17:38:06.480Z,9.05
2023-04-01T17:41:03.122Z,9.43
2023-04-01T17:43:37.050Z,7.65
2023-04-01T17:46:23.991Z,23.75
2023-04-01T17:49:27.820Z,48.30
2023-04-01T17:52:10.757Z,16.33
2023-04-01T17:55:18.936Z,19.35
2023-04-01T17:58:18.163Z,29.65
2023-04-01T18:00:55.932Z,26.48
2023-04-01T18:03:57.826Z,16.25
2023-04-01T18:06:37.403Z,20.63
2023-04-01T18:09:27.072Z,15.48
2023-04-01T18:12:21.841Z,17.58
2023-04-01T18:15:12.387Z,23.00
2023-04-01T18:18:06.295Z,21.48
2023-04-01T18:20:48.057Z,17.98
2023-04-01T18:23:18.509Z,20.00
2023-04-01T18:25:51.991Z,22.45
2023-04-01T18:28:22.532Z,22.42
2023-04-01T18:31:09.365Z,27.85
2023-04-01T18:34:03.955Z,43.47
2023-04-01T18:36:47.384Z,30.27
2023-04-01T18:39:37.984Z,18.25
2023-04-01T18:42:43.069Z,24.92
2023-04-01T18:45:39.491Z,20.48
2023-04-01T18:48:31.366Z,21.10
2023-04-01T18:51:03.959Z,23.63
2023-04-01T18:53:55.889Z,22.95
2023-04-01T18:56:29.629Z,20.88
2023-04-01T18:59:07.093Z,19.40
2023-04-01T19:01:58.824Z,23.58
2023-04-01T19:04:33.053Z,23.63
2023-04-01T19:07:21.252Z,21.48
2023-04-01T19:09:51.500Z,23.95
2023-04-01T19:12:47.881Z,22.73
2023-04-01T19:15:27.349Z,22.85
2023-04-01T19:18:00.778Z,25.48
2023-04-01T19:20:34.922Z,22.65
2023-04-01T19:23:25.036Z,25.42
2023-04-01T19:26:02.344Z,21.92
2023-04-01T19:28:50.514Z,21.50
2023-04-01T19:31:32.895Z,20.05
2023-04-01T19:36:48.456Z,23.42
2023-04-01T19:39:25.162Z,18.67
2023-04-01T19:41:57.007Z,23.27
2023-04-01T19:44:37.683Z,17.25
2023-04-01T19:47:33.011Z,17.45
2023-04-01T19:50:18.750Z,15.43
2023-04-01T19:52:48.763Z,20.73
2023-04-01T19:55:22.627Z,16.38
2023-04-01T19:57:52.777Z,14.35
2023-04-01T20:00:33.065Z,16.35
2023-04-01T20:03:00.722Z,19.15
2023-04-01T20:05:54.634Z,20.15
2023-04-01T20:08:37.344Z,21.13
2023-04-01T20:11:28.008Z,21.88
2023-04-01T20:14:08.030Z,26.48
2023-04-01T20:17:02.742Z,25.58
2023-04-01T20:19:41.965Z,35.28
2023-04-01T20:22:33.396Z,32.67
2023-04-01T20:25:18.968Z,26.60
2023-04-01T20:27:57.648Z,30.70
2023-04-01T20:31:03.081Z,37.85
2023-04-01T20:33:56.282Z,26.30
2023-04-01T20:36:45.816Z,30.75
2023-04-01T20:40:03.849Z,27.70
2023-04-01T20:42:49.319Z,27.85
2023-04-01T20:45:54.927Z,20.50
2023-04-01T20:48:40.430Z,14.98
2023-04-01T20:51:11.815Z,17.67
2023-04-01T20:54:11.611Z,18.13
2023-04-01T20:57:07.629Z,18.58
2023-04-01T21:00:16.522Z,20.67
2023-04-01T21:03:13.614Z,21.27
2023-04-01T21:06:25.043Z,22.08
2023-04-01T21:09:29.979Z,19.58
2023-04-01T21:12:15.376Z,19.52
2023-04-01T21:14:59.964Z,26.85
2023-04-01T21:17:38.315Z,24.13
2023-04-01T21:20:23.461Z,24.73
2023-04-01T21:23:38.120Z,27.10
2023-04-01T21:26:14.648Z,23.35
2023-04-01T21:28:59.264Z,26.67
2023-04-01T21:31:32.761Z,31.65
2023-04-01T21:34:18.149Z,35.38
2023-04-01T21:37:04.322Z,36.47
2023-04-01T21:40:09.327Z,38.90
2023-04-01T21:43:15.038Z,38.78
2023-04-01T21:46:11.036Z,39.50
2023-04-01T21:48:55.136Z,36.53
2023-04-01T21:51:43.963Z,38.85
2023-04-01T21:54:44.264Z,39.53
2023-04-01T21:57:49.304Z,36.88
2023-04-01T22:00:19.958Z,37.60
2023-04-01T22:02:53.127Z,44.33
2023-04-01T22:05:23.274Z,40.47
2023-04-01T22:08:28.546Z,39.75
2023-04-01T22:11:22.713Z,40.17
2023-04-01T22:13:59.365Z,39.45
2023-04-01T22:16:55.071Z,38.50
2023-04-01T22:19:37.353Z,42.10
2023-04-01T22:22:22.993Z,44.80
2023-04-01T22:25:05.962Z,41.88
2023-04-01T22:27:56.960Z,38.53
2023-04-01T22:30:30.521Z,39.03
2023-04-01T22:33:12.095Z,38.67
2023-04-01T22:35:51.819Z,41.37
2023-04-01T22:39:00.102Z,41.92
2023-04-01T22:41:27.502Z,42.30
2023-04-01T22:43:57.987Z,41.70
2023-04-01T22:46:50.742Z,43.47
2023-04-01T22:49:24.189Z,43.00
2023-04-01T22:52:13.774Z,45.35
2023-04-01T22:54:48.382Z,41.33
2023-04-01T22:57:42.921Z,47.92
2023-04-01T23:00:16.107Z,47.72
2023-04-01T23:02:51.734Z,48.05
2023-04-01T23:05:22.321Z,51.08
2023-04-01T23:08:01.722Z,52.55
2023-04-01T23:10:34.572Z,62.17
2023-04-01T23:13:05.160Z,55.08
2023-04-01T23:15:36.047Z,56.95
2023-04-01T23:18:13.840Z,60.47
2023-04-01T23:20:47.070Z,45.70
2023-04-01T23:23:20.337Z,46.70
2023-04-01T23:26:03.223Z,42.55
2023-04-01T23:28:46.010Z,44.50
2023-04-01T23:31:32.553Z,48.38
2023-04-01T23:34:15.107Z,47.13
2023-04-01T23:36:48.843Z,45.40
2023-04-01T23:39:38.640Z,49.20
2023-04-01T23:42:14.333Z,46.13
2023-04-01T23:44:42.759Z,46.70
2023-04-01T23:47:16.934Z,46.67
2023-04-01T23:49:50.362Z,52.67
2023-04-01T23:52:31.380Z,49.85
2023-04-01T23:55:27.618Z,55.25
2023-04-01T23:58:07.547Z,55.90
